createdAt,value
2022-12-29T00:00:12.807Z,0.40
2022-12-29T00:02:45.869Z,0.22
2022-12-29T00:05:16.183Z,0.40
2022-12-29T00:07:45.237Z,0.65
2022-12-29T00:10:14.206Z,0.30
2022-12-29T00:13:01.366Z,0.63
2022-12-29T00:15:42.624Z,0.28
2022-12-29T00:18:11.842Z,0.35
2022-12-29T00:21:06.842Z,0.63
2022-12-29T00:24:06.033Z,0.50
2022-12-29T00:26:52.467Z,0.30
2022-12-29T00:29:43.278Z,1.15
2022-12-29T00:32:30.784Z,0.40
2022-12-29T00:35:10.508Z,0.40
2022-12-29T00:38:05.193Z,0.40
2022-12-29T00:40:50.423Z,0.63
2022-12-29T00:43:35.633Z,1.75
2022-12-29T00:46:02.505Z,0.40
2022-12-29T00:48:49.402Z,0.45
2022-12-29T00:51:21.561Z,0.28
2022-12-29T00:53:50.249Z,0.20
2022-12-29T00:56:16.868Z,0.32
2022-12-29T00:58:49.913Z,0.98
2022-12-29T01:01:19.763Z,0.30
2022-12-29T01:03:49.042Z,0.32
2022-12-29T01:06:18.031Z,1.67
2022-12-29T01:08:45.015Z,0.22
2022-12-29T01:11:15.982Z,0.25
2022-12-29T01:13:47.020Z,0.40
2022-12-29T01:16:20.705Z,0.13
2022-12-29T01:18:47.547Z,0.20
2022-12-29T01:21:14.188Z,1.05
2022-12-29T01:23:44.659Z,0.20
2022-12-29T01:26:17.784Z,1.05
2022-12-29T01:28:45.018Z,0.20
2022-12-29T01:31:16.009Z,0.60
2022-12-29T01:33:46.527Z,0.40
2022-12-29T01:36:18.739Z,0.60
2022-12-29T01:38:45.707Z,0.80
2022-12-29T01:41:14.285Z,0.20
2022-12-29T01:43:48.796Z,0.20
2022-12-29T01:46:34.770Z,1.33
2022-12-29T01:49:28.041Z,0.38
2022-12-29T01:52:00.020Z,0.75
2022-12-29T01:54:40.608Z,0.80
2022-12-29T01:57:13.266Z,0.22
2022-12-29T01:59:47.823Z,2.63
2022-12-29T02:02:20.469Z,0.60
2022-12-29T02:04:52.786Z,0.52
2022-12-29T02:07:25.532Z,0.32
2022-12-29T02:09:56.626Z,0.30
2022-12-29T02:12:24.775Z,0.43
2022-12-29T02:14:58.747Z,1.27
2022-12-29T02:17:34.390Z,0.82
2022-12-29T02:20:24.683Z,1.83
2022-12-29T02:23:18.298Z,0.90
2022-12-29T02:25:48.595Z,0.85
2022-12-29T02:28:53.046Z,0.70
2022-12-29T02:31:45.069Z,1.20
2022-12-29T02:34:19.833Z,0.85
2022-12-29T02:36:46.634Z,2.58
2022-12-29T02:39:29.644Z,1.70
2022-12-29T02:42:25.128Z,0.50
2022-12-29T02:45:22.959Z,1.38
2022-12-29T02:48:07.039Z,1.35
2022-12-29T02:50:44.389Z,0.60
2022-12-29T02:53:15.589Z,0.55
2022-12-29T02:55:52.235Z,0.40
2022-12-29T02:58:24.583Z,0.40
2022-12-29T03:03:36.367Z,0.40
2022-12-29T03:06:37.462Z,0.57
2022-12-29T03:09:19.885Z,0.40
2022-12-29T03:12:08.671Z,0.82
2022-12-29T03:15:17.273Z,0.40
2022-12-29T03:18:27.024Z,0.40
2022-12-29T03:21:03.397Z,0.65
2022-12-29T03:23:32.073Z,1.90
2022-12-29T03:26:05.026Z,0.55
2022-12-29T03:28:41.032Z,0.50
2022-12-29T03:31:10.104Z,0.50
2022-12-29T03:33:40.616Z,0.63
2022-12-29T03:36:17.054Z,0.43
2022-12-29T03:39:15.895Z,0.82
2022-12-29T03:41:45.615Z,0.13
2022-12-29T03:44:16.865Z,1.45
2022-12-29T03:46:49.227Z,3.03
2022-12-29T03:49:19.567Z,0.13
2022-12-29T03:51:46.180Z,0.20
2022-12-29T03:54:13.173Z,1.38
2022-12-29T03:56:39.919Z,0.38
2022-12-29T03:59:06.852Z,1.10
2022-12-29T04:01:39.260Z,0.30
2022-12-29T04:04:06.051Z,0.40
2022-12-29T04:06:33.020Z,0.40
2022-12-29T04:09:08.482Z,0.30
2022-12-29T04:11:43.074Z,1.05
2022-12-29T04:14:09.798Z,0.40
2022-12-29T04:16:39.840Z,0.57
2022-12-29T04:19:08.451Z,0.88
2022-12-29T04:21:36.515Z,0.20
2022-12-29T04:24:03.770Z,0.25
2022-12-29T04:26:32.768Z,1.70
2022-12-29T04:29:31.837Z,0.80
2022-12-29T04:32:08.604Z,1.27
2022-12-29T04:34:44.276Z,0.95
2022-12-29T04:37:12.945Z,1.13
2022-12-29T04:39:41.964Z,0.77
2022-12-29T04:42:11.360Z,2.75
2022-12-29T04:44:45.192Z,1.08
2022-12-29T04:47:32.446Z,0.40
2022-12-29T04:50:22.289Z,0.20
2022-12-29T04:55:37.872Z,0.25
2022-12-29T04:58:04.591Z,0.77
2022-12-29T05:00:36.705Z,1.40
2022-12-29T05:03:06.489Z,0.63
2022-12-29T05:05:33.382Z,0.30
2022-12-29T05:08:04.161Z,2.35
2022-12-29T05:10:33.996Z,2.50
2022-12-29T05:13:04.866Z,0.75
2022-12-29T05:15:34.682Z,2.63
2022-12-29T05:18:04.716Z,0.60
2022-12-29T05:23:03.071Z,1.08
2022-12-29T05:25:31.483Z,2.25
2022-12-29T05:28:13.293Z,0.73
2022-12-29T05:30:51.307Z,1.60
2022-12-29T05:33:19.470Z,1.00
2022-12-29T05:35:51.683Z,1.02
2022-12-29T05:38:22.236Z,0.53
2022-12-29T05:40:56.442Z,0.43
2022-12-29T05:43:50.688Z,1.05
2022-12-29T05:46:32.540Z,1.08
2022-12-29T05:49:28.731Z,0.90
2022-12-29T05:52:08.098Z,0.65
2022-12-29T05:54:37.313Z,1.70
2022-12-29T05:57:10.211Z,0.60
2022-12-29T05:59:38.393Z,0.75
2022-12-29T06:02:05.782Z,0.75
2022-12-29T06:04:35.415Z,1.48
2022-12-29T06:07:05.604Z,1.20
2022-12-29T06:09:44.856Z,3.65
2022-12-29T06:12:14.816Z,1.73
2022-12-29T06:14:48.271Z,2.33
2022-12-29T06:17:16.157Z,1.85
2022-12-29T06:19:51.144Z,1.30
2022-12-29T06:22:18.883Z,0.75
2022-12-29T06:24:45.662Z,1.20
2022-12-29T06:27:14.727Z,1.52
2022-12-29T06:29:41.847Z,3.90
2022-12-29T06:32:11.109Z,3.42
2022-12-29T06:34:44.267Z,2.72
2022-12-29T06:37:16.187Z,0.93
2022-12-29T06:39:47.408Z,1.23
2022-12-29T06:42:16.314Z,1.75
2022-12-29T06:44:49.055Z,2.03
2022-12-29T06:47:15.685Z,2.53
2022-12-29T06:49:42.359Z,0.95
2022-12-29T06:52:12.783Z,1.88
2022-12-29T06:54:40.969Z,1.45
2022-12-29T06:57:10.082Z,1.70
2022-12-29T06:59:41.401Z,2.10
2022-12-29T07:02:14.926Z,0.98
2022-12-29T07:04:41.699Z,2.35
2022-12-29T07:07:08.492Z,6.18
2022-12-29T07:09:42.063Z,5.05
2022-12-29T07:12:08.690Z,2.05
2022-12-29T07:14:43.633Z,4.03
2022-12-29T07:17:13.212Z,0.95
2022-12-29T07:19:39.877Z,1.60
2022-12-29T07:22:07.894Z,1.20
2022-12-29T07:24:38.750Z,1.88
2022-12-29T07:27:08.939Z,1.27
2022-12-29T07:29:41.159Z,2.58
2022-12-29T07:32:07.935Z,2.05
2022-12-29T07:34:34.621Z,4.30
2022-12-29T07:37:01.213Z,2.67
2022-12-29T07:39:32.576Z,4.35
2022-12-29T07:42:05.175Z,5.65
2022-12-29T07:44:39.011Z,1.85
2022-12-29T07:47:26.692Z,1.90
2022-12-29T07:49:59.026Z,2.03
2022-12-29T07:52:25.730Z,2.63
2022-12-29T07:54:55.294Z,5.75
2022-12-29T07:57:31.341Z,3.22
2022-12-29T08:00:01.108Z,3.67
2022-12-29T08:02:30.616Z,3.03
2022-12-29T08:04:59.457Z,4.22
2022-12-29T08:07:26.058Z,5.25
2022-12-29T08:09:53.702Z,4.72
2022-12-29T08:12:20.347Z,5.82
2022-12-29T08:14:46.995Z,4.40
2022-12-29T08:17:13.610Z,3.58
2022-12-29T08:19:40.950Z,3.58
2022-12-29T08:22:07.615Z,3.38
2022-12-29T08:24:34.267Z,2.97
2022-12-29T08:27:05.068Z,2.92
2022-12-29T08:29:35.823Z,1.52
2022-12-29T08:32:02.480Z,2.78
2022-12-29T08:34:29.169Z,5.40
2022-12-29T08:36:55.756Z,1.98
2022-12-29T08:39:22.393Z,2.63
2022-12-29T08:41:51.159Z,3.20
2022-12-29T08:44:18.123Z,3.80
2022-12-29T08:46:44.804Z,5.65
2022-12-29T08:49:11.472Z,4.45
2022-12-29T08:51:38.084Z,3.05
2022-12-29T08:54:04.788Z,3.47
2022-12-29T08:56:34.218Z,5.35
2022-12-29T08:59:01.206Z,3.00
2022-12-29T09:01:31.390Z,4.78
2022-12-29T09:04:15.942Z,4.57
2022-12-29T09:06:44.214Z,3.38
2022-12-29T09:09:11.881Z,3.40
2022-12-29T09:11:38.597Z,3.22
2022-12-29T09:14:05.404Z,4.22
2022-12-29T09:16:32.595Z,3.67
2022-12-29T09:18:59.250Z,4.70
2022-12-29T09:21:25.891Z,3.35
2022-12-29T09:23:53.271Z,4.82
2022-12-29T09:26:19.888Z,3.13
2022-12-29T09:28:46.884Z,3.00
2022-12-29T09:31:28.986Z,3.08
2022-12-29T09:33:55.673Z,5.85
2022-12-29T09:36:22.411Z,3.80
2022-12-29T09:38:49.011Z,3.15
2022-12-29T09:41:26.041Z,4.38
2022-12-29T09:44:13.607Z,1.42
2022-12-29T09:46:47.006Z,3.08
2022-12-29T09:49:36.795Z,4.38
2022-12-29T09:52:15.854Z,5.15
2022-12-29T09:55:00.466Z,3.08
2022-12-29T09:58:00.843Z,2.75
2022-12-29T10:01:13.830Z,2.42
2022-12-29T10:03:49.752Z,4.60
2022-12-29T10:06:26.337Z,8.05
2022-12-29T10:08:59.671Z,3.40
2022-12-29T10:11:54.463Z,8.05
2022-12-29T10:14:23.903Z,7.00
2022-12-29T10:17:18.530Z,5.03
2022-12-29T10:20:16.690Z,4.25
2022-12-29T10:22:46.115Z,5.85
2022-12-29T10:25:31.061Z,6.78
2022-12-29T10:28:02.908Z,5.78
2022-12-29T10:30:30.277Z,3.38
2022-12-29T10:33:05.305Z,3.28
2022-12-29T10:35:36.826Z,7.22
2022-12-29T10:38:21.304Z,3.53
2022-12-29T10:41:09.759Z,3.90
2022-12-29T10:43:49.841Z,4.65
2022-12-29T10:46:29.047Z,5.75
2022-12-29T10:48:56.214Z,7.43
2022-12-29T10:51:25.120Z,5.95
2022-12-29T10:54:20.703Z,5.18
2022-12-29T10:56:54.807Z,5.60
2022-12-29T10:59:28.873Z,3.53
2022-12-29T11:02:11.779Z,4.82
2022-12-29T11:05:10.423Z,4.10
2022-12-29T11:07:37.616Z,5.82
2022-12-29T11:10:41.669Z,3.03
2022-12-29T11:13:14.140Z,4.50
2022-12-29T11:18:25.567Z,5.28
2022-12-29T11:21:01.245Z,4.07
2022-12-29T11:23:40.540Z,2.63
2022-12-29T11:26:30.181Z,5.22
2022-12-29T11:29:15.343Z,3.33
2022-12-29T11:31:43.420Z,4.75
2022-12-29T11:34:17.265Z,5.03
2022-12-29T11:36:45.332Z,4.57
2022-12-29T11:39:29.874Z,4.10
2022-12-29T11:41:59.951Z,2.70
2022-12-29T11:44:27.921Z,3.88
2022-12-29T11:46:55.894Z,5.18
2022-12-29T11:49:29.323Z,4.45
2022-12-29T11:51:59.304Z,6.20
2022-12-29T11:54:34.348Z,3.83
2022-12-29T11:57:13.086Z,4.05
2022-12-29T11:59:43.622Z,5.13
2022-12-29T12:02:29.549Z,5.32
2022-12-29T12:05:19.624Z,7.20
2022-12-29T12:08:21.122Z,12.00
2022-12-29T12:10:55.550Z,5.00
2022-12-29T12:13:52.426Z,6.85
2022-12-29T12:16:29.663Z,4.72
2022-12-29T12:19:17.603Z,11.50
2022-12-29T12:21:51.230Z,7.75
2022-12-29T12:24:21.153Z,6.28
2022-12-29T12:27:02.951Z,3.65
2022-12-29T12:29:36.517Z,5.03
2022-12-29T12:32:28.866Z,5.13
2022-12-29T12:34:55.622Z,4.50
2022-12-29T12:37:51.171Z,5.20
2022-12-29T12:40:49.861Z,6.45
2022-12-29T12:43:26.905Z,3.53
2022-12-29T12:46:12.277Z,5.68
2022-12-29T12:49:20.306Z,6.50
2022-12-29T12:52:02.933Z,4.13
2022-12-29T12:55:05.535Z,5.82
2022-12-29T12:57:58.531Z,4.40
2022-12-29T13:00:25.512Z,4.38
2022-12-29T13:03:04.133Z,4.65
2022-12-29T13:06:00.936Z,3.67
2022-12-29T13:08:40.358Z,1.40
2022-12-29T13:11:09.863Z,2.65
2022-12-29T13:13:51.498Z,4.10
2022-12-29T13:16:57.583Z,2.47
2022-12-29T13:19:47.680Z,2.95
2022-12-29T13:22:35.256Z,2.80
2022-12-29T13:25:40.046Z,5.57
2022-12-29T13:28:44.198Z,4.63
2022-12-29T13:31:34.726Z,4.43
2022-12-29T13:34:17.672Z,2.03
2022-12-29T13:36:49.132Z,3.53
2022-12-29T13:39:31.674Z,2.15
2022-12-29T13:44:33.307Z,2.88
2022-12-29T13:47:19.204Z,3.38
2022-12-29T13:49:46.898Z,3.33
2022-12-29T13:52:25.681Z,2.30
2022-12-29T13:55:33.052Z,3.03
2022-12-29T13:58:10.328Z,4.18
2022-12-29T14:01:03.682Z,6.22
2022-12-29T14:03:46.400Z,5.82
2022-12-29T14:06:25.156Z,2.42
2022-12-29T14:08:58.906Z,4.63
2022-12-29T14:11:36.046Z,5.82
2022-12-29T14:14:29.579Z,3.50
2022-12-29T14:17:14.830Z,2.60
2022-12-29T14:19:44.657Z,3.88
2022-12-29T14:22:13.060Z,3.08
2022-12-29T14:24:43.921Z,5.07
2022-12-29T14:27:10.488Z,3.72
2022-12-29T14:29:39.940Z,1.73
2022-12-29T14:32:27.463Z,4.03
2022-12-29T14:34:59.087Z,3.10
2022-12-29T14:37:39.883Z,5.20
2022-12-29T14:40:07.598Z,3.63
2022-12-29T14:42:34.610Z,2.60
2022-12-29T14:45:03.446Z,4.97
2022-12-29T14:47:53.750Z,2.45
2022-12-29T14:50:46.285Z,6.00
2022-12-29T14:53:45.560Z,5.00
2022-12-29T14:56:14.054Z,7.22
2022-12-29T14:59:02.748Z,1.67
2022-12-29T15:01:46.163Z,4.15
2022-12-29T15:04:27.495Z,2.00
2022-12-29T15:06:54.777Z,4.32
2022-12-29T15:09:31.814Z,2.63
2022-12-29T15:12:22.067Z,5.65
2022-12-29T15:14:54.860Z,4.07
2022-12-29T15:17:34.298Z,6.65
2022-12-29T15:20:30.760Z,4.53
2022-12-29T15:23:16.878Z,4.25
2022-12-29T15:25:59.957Z,5.97
2022-12-29T15:28:28.922Z,9.27
2022-12-29T15:31:02.113Z,7.40
2022-12-29T15:33:29.270Z,8.48
2022-12-29T15:36:02.878Z,14.10
2022-12-29T15:38:37.126Z,6.75
2022-12-29T15:42:00.312Z,8.27
2022-12-29T15:44:34.066Z,8.20
2022-12-29T15:47:06.357Z,5.88
2022-12-29T15:49:33.907Z,9.00
2022-12-29T15:52:00.634Z,6.30
2022-12-29T15:54:31.185Z,6.07
2022-12-29T15:56:57.855Z,7.13
2022-12-29T15:59:27.260Z,7.25
2022-12-29T16:01:56.263Z,8.00
2022-12-29T16:04:24.571Z,14.82
2022-12-29T16:06:59.537Z,8.48
2022-12-29T16:09:32.397Z,8.20
2022-12-29T16:12:02.961Z,10.73
2022-12-29T16:14:40.576Z,7.20
2022-12-29T16:17:11.028Z,9.27
2022-12-29T16:19:40.892Z,8.73
2022-12-29T16:22:13.472Z,6.18
2022-12-29T16:24:41.512Z,5.45
2022-12-29T16:27:17.223Z,7.13
2022-12-29T16:29:44.289Z,7.07
2022-12-29T16:32:31.379Z,7.50
2022-12-29T16:35:18.670Z,9.13
2022-12-29T16:37:46.193Z,4.45
2022-12-29T16:40:18.680Z,8.35
2022-12-29T16:42:51.782Z,3.58
2022-12-29T16:45:22.201Z,5.63
2022-12-29T16:48:05.557Z,4.63
2022-12-29T16:50:34.297Z,8.93
2022-12-29T16:53:01.971Z,6.22
2022-12-29T16:55:28.600Z,2.25
2022-12-29T16:57:57.267Z,3.03
2022-12-29T17:00:27.303Z,1.40
2022-12-29T17:02:58.349Z,1.92
2022-12-29T17:05:25.522Z,3.80
2022-12-29T17:07:53.686Z,2.47
2022-12-29T17:10:20.683Z,1.23
2022-12-29T17:12:49.204Z,2.60
2022-12-29T17:15:24.655Z,2.40
2022-12-29T17:17:53.881Z,2.55
2022-12-29T17:20:24.809Z,1.85
2022-12-29T17:22:55.346Z,2.10
2022-12-29T17:25:27.206Z,1.63
2022-12-29T17:27:58.827Z,1.23
2022-12-29T17:30:32.852Z,4.05
2022-12-29T17:33:05.246Z,2.28
2022-12-29T17:35:31.905Z,4.67
2022-12-29T17:37:58.517Z,2.92
2022-12-29T17:40:30.424Z,2.75
2022-12-29T17:42:58.945Z,4.30
2022-12-29T17:45:31.130Z,6.38
2022-12-29T17:48:01.446Z,8.85
2022-12-29T17:50:30.009Z,6.55
2022-12-29T17:53:00.948Z,5.95
2022-12-29T17:55:37.166Z,9.52
2022-12-29T17:58:23.503Z,6.97
2022-12-29T18:00:57.841Z,5.00
2022-12-29T18:03:33.480Z,8.00
2022-12-29T18:06:02.040Z,6.80
2022-12-29T18:08:32.544Z,7.32
2022-12-29T18:10:59.394Z,9.10
2022-12-29T18:13:40.471Z,4.80
2022-12-29T18:16:14.420Z,11.02
2022-12-29T18:18:43.819Z,11.35
2022-12-29T18:21:21.641Z,6.63
2022-12-29T18:23:50.717Z,13.57
2022-12-29T18:26:25.689Z,11.07
2022-12-29T18:28:55.288Z,12.13
2022-12-29T18:31:27.248Z,10.50
2022-12-29T18:33:58.295Z,10.68
2022-12-29T18:36:25.449Z,9.02
2022-12-29T18:38:53.888Z,8.90
2022-12-29T18:41:31.712Z,8.77
2022-12-29T18:44:03.854Z,11.45
2022-12-29T18:46:33.348Z,11.10
2022-12-29T18:49:00.005Z,5.10
2022-12-29T18:51:27.889Z,8.45
2022-12-29T18:53:59.872Z,7.10
2022-12-29T18:56:27.126Z,5.57
2022-12-29T18:58:53.864Z,5.70
2022-12-29T19:01:25.890Z,11.05
2022-12-29T19:03:53.232Z,5.97
2022-12-29T19:06:21.098Z,8.95
2022-12-29T19:08:47.684Z,6.63
2022-12-29T19:11:14.425Z,7.40
2022-12-29T19:13:41.156Z,6.63
2022-12-29T19:16:17.078Z,5.13
2022-12-29T19:19:00.933Z,8.57
2022-12-29T19:21:30.670Z,7.05
2022-12-29T19:23:57.277Z,3.65
2022-12-29T19:26:34.635Z,7.55
2022-12-29T19:29:07.072Z,9.10
2022-12-29T19:34:04.559Z,2.20
2022-12-29T19:36:34.109Z,9.13
2022-12-29T19:39:00.752Z,5.68
2022-12-29T19:41:29.678Z,6.85
2022-12-29T19:43:56.311Z,6.72
2022-12-29T19:46:25.750Z,5.97
2022-12-29T19:48:58.586Z,6.32
2022-12-29T19:51:25.969Z,10.85
2022-12-29T19:53:54.159Z,8.32
2022-12-29T19:56:23.345Z,7.63
2022-12-29T19:58:51.927Z,5.55
2022-12-29T20:01:22.388Z,5.53
2022-12-29T20:03:51.631Z,6.20
2022-12-29T20:06:20.714Z,5.65
2022-12-29T20:08:49.993Z,7.18
2022-12-29T20:11:18.360Z,7.57
2022-12-29T20:13:48.205Z,6.55
2022-12-29T20:16:20.551Z,5.03
2022-12-29T20:18:50.655Z,7.15
2022-12-29T20:21:23.126Z,9.38
2022-12-29T20:26:27.634Z,8.63
2022-12-29T20:28:57.047Z,4.90
2022-12-29T20:31:35.664Z,9.38
2022-12-29T20:34:05.752Z,7.68
2022-12-29T20:36:35.578Z,6.18
2022-12-29T20:39:13.439Z,8.85
2022-12-29T20:41:51.388Z,5.15
2022-12-29T20:44:23.852Z,8.15
2022-12-29T20:46:50.546Z,9.20
2022-12-29T20:49:19.652Z,8.90
2022-12-29T20:52:06.727Z,8.73
2022-12-29T20:54:39.152Z,11.60
2022-12-29T20:59:37.618Z,7.60
2022-12-29T21:02:04.664Z,9.90
2022-12-29T21:05:05.085Z,8.05
2022-12-29T21:07:25.264Z,8.13
2022-12-29T21:09:59.679Z,10.25
2022-12-29T21:12:27.376Z,8.70
2022-12-29T21:14:56.108Z,5.88
2022-12-29T21:17:22.862Z,10.02
2022-12-29T21:19:49.513Z,9.30
2022-12-29T21:22:18.410Z,7.90
2022-12-29T21:24:47.836Z,6.65
2022-12-29T21:27:16.514Z,8.82
2022-12-29T21:29:45.621Z,10.90
2022-12-29T21:32:12.255Z,8.35
2022-12-29T21:34:38.952Z,8.13
2022-12-29T21:37:09.398Z,13.25
2022-12-29T21:39:36.072Z,6.40
2022-12-29T21:42:03.733Z,6.30
2022-12-29T21:44:49.041Z,9.27
2022-12-29T21:47:18.261Z,5.40
2022-12-29T21:49:47.092Z,10.65
2022-12-29T21:52:13.755Z,6.80
2022-12-29T21:55:06.724Z,9.70
2022-12-29T21:57:55.138Z,7.28
2022-12-29T22:00:40.778Z,7.53
2022-12-29T22:03:26.388Z,8.57
2022-12-29T22:06:12.765Z,6.82
2022-12-29T22:09:00.747Z,5.88
2022-12-29T22:11:46.329Z,6.78
2022-12-29T22:14:15.850Z,6.90
2022-12-29T22:16:44.930Z,11.52
2022-12-29T22:19:18.350Z,12.83
2022-12-29T22:21:46.188Z,8.85
2022-12-29T22:24:16.084Z,6.80
2022-12-29T22:26:45.185Z,9.25
2022-12-29T22:29:13.767Z,6.13
2022-12-29T22:31:40.423Z,8.38
2022-12-29T22:34:11.880Z,11.23
2022-12-29T22:36:41.249Z,9.83
2022-12-29T22:39:07.851Z,8.00
2022-12-29T22:41:38.746Z,12.50
2022-12-29T22:44:05.555Z,8.25
2022-12-29T22:46:32.306Z,6.97
2022-12-29T22:49:01.200Z,8.50
2022-12-29T22:51:27.866Z,7.57
2022-12-29T22:53:54.492Z,10.05
2022-12-29T22:56:21.142Z,10.68
2022-12-29T22:58:48.406Z,8.60
2022-12-29T23:01:17.785Z,12.55
2022-12-29T23:03:51.513Z,7.45
2022-12-29T23:06:18.361Z,9.18
2022-12-29T23:08:45.100Z,6.30
2022-12-29T23:11:12.869Z,10.25
2022-12-29T23:13:40.975Z,5.38
2022-12-29T23:16:10.118Z,9.82
2022-12-29T23:18:40.283Z,8.70
2022-12-29T23:21:09.661Z,11.38
2022-12-29T23:23:57.230Z,8.43
2022-12-29T23:26:27.000Z,7.85
2022-12-29T23:29:02.527Z,6.25
2022-12-29T23:31:36.096Z,7.38
2022-12-29T23:34:06.276Z,6.50
2022-12-29T23:36:35.653Z,9.88
2022-12-29T23:39:06.511Z,7.28
2022-12-29T23:41:44.361Z,7.93
2022-12-29T23:44:11.017Z,10.82
2022-12-29T23:46:38.103Z,7.80
2022-12-29T23:49:09.020Z,9.35
2022-12-29T23:51:35.777Z,6.93
2022-12-29T23:54:02.493Z,7.80
2022-12-29T23:56:31.405Z,7.20
2022-12-29T23:58:58.031Z,5.97
